Time,TemperatureF,DewpointF,PressureIn,WindDirection,WindDirectionDegrees,WindSpeedMPH,WindSpeedGustMPH,Humidity,HourlyPrecipIn,Conditions,Clouds,dailyrainin,SoftwareType,DateUTC
2013-01-06 00:00:00,34.0,22.7,30.22,WNW,292,0.0,0.0,63,0.00,,,0.00,VWS V13.01,2013-01-06 05:00:00,
2013-01-06 00:01:00,34.0,22.7,30.22,WNW,292,0.0,0.0,63,0.00,,,0.00,VWS V13.01,2013-01-06 05:01:00,
2013-01-06 00:03:00,34.2,22.9,30.24,WNW,292,0.0,0.0,63,0.00,,,0.00,VWS V13.01,2013-01-06 05:03:00,
2013-01-06 00:08:00,34.2,22.9,30.24,WNW,292,0.0,0.0,63,0.00,,,0.00,VWS V13.01,2013-01-06 05:08:00,
2013-01-06 00:13:00,34.2,23.3,30.24,WNW,292,0.0,0.0,64,0.00,,,0.00,VWS V13.01,2013-01-06 05:13:00,
2013-01-06 00:18:00,34.0,23.1,30.24,WNW,292,0.0,0.0,64,0.00,,,0.00,VWS V13.01,2013-01-06 05:18:00,
2013-01-06 00:23:00,34.0,23.5,30.24,WNW,292,0.0,0.0,65,0.00,,,0.00,VWS V13.01,2013-01-06 05:23:00,
2013-01-06 00:28:00,34.0,23.5,30.24,WNW,292,0.0,0.0,65,0.00,,,0.00,VWS V13.01,2013-01-06 05:28:00,
2013-01-06 00:33:00,33.8,23.7,30.24,WNW,292,0.0,0.0,66,0.00,,,0.00,VWS V13.01,2013-01-06 05:33:00,
2013-01-06 00:38:00,33.8,24.0,30.24,WNW,292,0.0,0.0,67,0.00,,,0.00,VWS V13.01,2013-01-06 05:38:00,
2013-01-06 00:43:00,33.8,24.0,30.24,WNW,292,0.0,0.0,67,0.00,,,0.00,VWS V13.01,2013-01-06 05:43:00,
2013-01-06 00:48:00,33.8,24.0,30.24,WNW,292,0.0,0.0,67,0.00,,,0.00,VWS V13.01,2013-01-06 05:48:00,
2013-01-06 00:53:00,33.8,23.7,30.24,WNW,292,0.0,0.0,66,0.00,,,0.00,VWS V13.01,2013-01-06 05:53:00,
2013-01-06 00:58:00,33.6,23.5,30.24,WNW,292,0.0,0.0,66,0.00,,,0.00,VWS V13.01,2013-01-06 05:58:00,
2013-01-06 01:03:00,33.6,23.9,30.24,WNW,292,0.0,0.0,67,0.00,,,0.00,VWS V13.01,2013-01-06 06:03:00,
2013-01-06 01:08:00,33.6,23.5,30.24,WNW,292,0.0,0.0,66,0.00,,,0.00,VWS V13.01,2013-01-06 06:08:00,
2013-01-06 01:13:00,33.6,23.9,30.24,WNW,292,0.0,0.0,67,0.00,,,0.00,VWS V13.01,2013-01-06 06:13:00,
2013-01-06 01:18:00,33.6,24.2,30.24,WNW,292,0.0,0.0,68,0.00,,,0.00,VWS V13.01,2013-01-06 06:18:00,
2013-01-06 01:23:00,33.4,24.0,30.24,WNW,292,0.0,0.0,68,0.00,,,0.00,VWS V13.01,2013-01-06 06:23:00,
2013-01-06 01:28:00,33.4,24.0,30.24,WNW,292,0.0,0.0,68,0.00,,,0.00,VWS V13.01,2013-01-06 06:28:00,
2013-01-06 01:33:00,33.4,24.0,30.24,WNW,282,0.0,0.0,68,0.00,,,0.00,VWS V13.01,2013-01-06 06:33:00,
2013-01-06 01:38:00,33.4,24.0,30.24,West,281,0.0,0.0,68,0.00,,,0.00,VWS V13.01,2013-01-06 06:38:00,
2013-01-06 01:43:00,33.4,24.0,30.24,West,281,0.0,0.0,68,0.00,,,0.00,VWS V13.01,2013-01-06 06:43:00,
2013-01-06 01:48:00,33.3,23.5,30.24,West,281,0.0,0.0,67,0.00,,,0.00,VWS V13.01,2013-01-06 06:48:00,
2013-01-06 01:53:00,33.3,23.5,30.24,West,281,0.0,0.0,67,0.00,,,0.00,VWS V13.01,2013-01-06 06:53:00,
2013-01-06 01:58:00,33.3,23.5,30.24,WNW,282,0.0,0.0,67,0.00,,,0.00,VWS V13.01,2013-01-06 06:58:00,
2013-01-06 02:03:00,33.3,23.5,30.22,West,280,0.0,2.2,67,0.00,,,0.00,VWS V13.01,2013-01-06 07:03:00,
2013-01-06 02:08:00,33.3,23.1,30.22,East,80,0.0,0.0,66,0.00,,,0.00,VWS V13.01,2013-01-06 07:08:00,
2013-01-06 02:13:00,33.4,23.7,30.22,East,80,0.0,0.0,67,0.00,,,0.00,VWS V13.01,2013-01-06 07:13:00,
2013-01-06 02:18:00,33.4,23.7,30.22,East,80,0.0,0.0,67,0.00,,,0.00,VWS V13.01,2013-01-06 07:18:00,
2013-01-06 02:22:00,33.4,23.3,30.22,East,83,0.0,0.0,66,0.00,,,0.00,VWS V13.01,2013-01-06 07:22:00,
2013-01-06 02:27:00,33.4,23.0,30.22,SSE,148,0.0,0.0,65,0.00,,,0.00,VWS V13.01,2013-01-06 07:27:00,
2013-01-06 02:32:00,33.4,23.3,30.22,SSE,148,0.0,0.0,66,0.00,,,0.00,VWS V13.01,2013-01-06 07:32:00,
2013-01-06 02:37:00,33.4,23.3,30.22,SSE,148,0.0,0.0,66,0.00,,,0.00,VWS V13.01,2013-01-06 07:37:00,
2013-01-06 02:42:00,33.4,23.3,30.22,SSE,148,0.0,0.0,66,0.00,,,0.00,VWS V13.01,2013-01-06 07:42:00,
2013-01-06 02:47:00,33.4,23.3,30.22,SSE,148,0.0,0.0,66,0.00,,,0.00,VWS V13.01,2013-01-06 07:47:00,
2013-01-06 02:52:00,33.4,23.0,30.22,SSE,148,0.0,0.0,65,0.00,,,0.00,VWS V13.01,2013-01-06 07:52:00,
2013-01-06 02:57:00,33.4,23.3,30.22,SSE,148,0.0,0.0,66,0.00,,,0.00,VWS V13.01,2013-01-06 07:57:00,
2013-01-06 03:02:00,33.4,23.3,30.22,SSE,148,0.0,0.0,66,0.00,,,0.00,VWS V13.01,2013-01-06 08:02:00,
2013-01-06 03:07:00,33.3,23.1,30.22,SSE,148,0.0,0.0,66,0.00,,,0.00,VWS V13.01,2013-01-06 08:07:00,
2013-01-06 03:12:00,33.3,22.8,30.22,SSE,148,0.0,0.0,65,0.00,,,0.00,VWS V13.01,2013-01-06 08:12:00,
2013-01-06 03:17:00,33.3,23.1,30.22,SSE,148,0.0,0.0,66,0.00,,,0.00,VWS V13.01,2013-01-06 08:17:00,
2013-01-06 03:22:00,33.4,23.3,30.19,SSE,148,0.0,0.0,66,0.00,,,0.00,VWS V13.01,2013-01-06 08:22:00,
2013-01-06 03:27:00,33.4,23.7,30.19,SSE,148,0.0,0.0,67,0.00,,,0.00,VWS V13.01,2013-01-06 08:27:00,
2013-01-06 03:32:00,33.4,23.7,30.19,SSE,148,0.0,0.0,67,0.00,,,0.00,VWS V13.01,2013-01-06 08:32:00,
2013-01-06 03:37:00,33.4,23.7,30.19,SSE,148,0.0,0.0,67,0.00,,,0.00,VWS V13.01,2013-01-06 08:37:00,
2013-01-06 03:42:00,33.6,23.5,30.19,SSE,155,0.0,0.0,66,0.00,,,0.00,VWS V13.01,2013-01-06 08:42:00,
2013-01-06 03:47:00,33.6,23.1,30.19,SSE,155,0.0,0.0,65,0.00,,,0.00,VWS V13.01,2013-01-06 08:47:00,
2013-01-06 03:52:00,33.6,23.1,30.19,SSE,154,0.0,0.0,65,0.00,,,0.00,VWS V13.01,2013-01-06 08:52:00,
2013-01-06 03:57:00,33.4,23.0,30.19,SSE,155,0.0,0.0,65,0.00,,,0.00,VWS V13.01,2013-01-06 08:57:00,
2013-01-06 04:02:00,33.4,23.0,30.16,SSE,155,0.0,0.0,65,0.00,,,0.00,VWS V13.01,2013-01-06 09:02:00,
2013-01-06 04:07:00,33.6,23.9,30.16,SSE,155,0.0,0.0,67,0.00,,,0.00,VWS V13.01,2013-01-06 09:07:00,
2013-01-06 04:12:00,33.6,23.9,30.16,SSE,155,0.0,0.0,67,0.00,,,0.00,VWS V13.01,2013-01-06 09:12:00,
2013-01-06 04:17:00,33.4,23.7,30.16,SSE,155,0.0,0.0,67,0.00,,,0.00,VWS V13.01,2013-01-06 09:17:00,
2013-01-06 04:22:00,33.3,23.5,30.16,SSE,147,3.1,3.1,67,0.00,,,0.00,VWS V13.01,2013-01-06 09:22:00,
2013-01-06 04:27:00,33.3,23.5,30.16,SSE,159,0.0,2.7,67,0.00,,,0.00,VWS V13.01,2013-01-06 09:27:00,
2013-01-06 04:32:00,33.3,23.9,30.16,SW,224,0.0,0.0,68,0.00,,,0.00,VWS V13.01,2013-01-06 09:32:00,
2013-01-06 04:37:00,33.3,24.2,30.16,SE,140,0.0,0.0,69,0.00,,,0.00,VWS V13.01,2013-01-06 09:37:00,
2013-01-06 04:42:00,33.3,24.2,30.16,SW,225,0.0,0.0,69,0.00,,,0.00,VWS V13.01,2013-01-06 09:42:00,
2013-01-06 04:47:00,33.3,25.2,30.16,SW,225,2.2,2.2,72,0.00,,,0.00,VWS V13.01,2013-01-06 09:47:00,
2013-01-06 04:52:00,33.1,25.7,30.13,SW,225,0.0,0.0,74,0.00,,,0.00,VWS V13.01,2013-01-06 09:52:00,
2013-01-06 04:57:00,33.1,26.4,30.13,SW,225,0.0,0.0,76,0.00,,,0.00,VWS V13.01,2013-01-06 09:57:00,
2013-01-06 05:02:00,33.1,26.4,30.13,SW,223,0.0,0.0,76,0.00,,,0.00,VWS V13.01,2013-01-06 10:02:00,
2013-01-06 05:07:00,33.1,26.4,30.13,SW,217,3.6,3.6,76,0.00,,,0.00,VWS V13.01,2013-01-06 10:07:00,
2013-01-06 05:12:00,32.9,26.8,30.13,SW,217,0.0,0.0,78,0.00,,,0.00,VWS V13.01,2013-01-06 10:12:00,
2013-01-06 05:17:00,32.9,27.1,30.13,SW,217,0.0,0.0,79,0.00,,,0.00,VWS V13.01,2013-01-06 10:17:00,
2013-01-06 05:22:00,32.9,27.7,30.13,ESE,122,0.0,0.0,81,0.00,,,0.00,VWS V13.01,2013-01-06 10:22:00,
2013-01-06 05:27:00,32.9,27.7,30.13,ESE,123,0.0,0.0,81,0.00,,,0.00,VWS V13.01,2013-01-06 10:27:00,
2013-01-06 05:32:00,32.9,27.7,30.13,South,179,0.0,0.0,81,0.00,,,0.00,VWS V13.01,2013-01-06 10:32:00,
2013-01-06 05:37:00,32.9,27.7,30.13,South,179,0.0,0.0,81,0.00,,,0.00,VWS V13.01,2013-01-06 10:37:00,
2013-01-06 05:42:00,32.9,28.0,30.13,South,179,0.0,0.0,82,0.00,,,0.00,VWS V13.01,2013-01-06 10:42:00,
2013-01-06 05:47:00,32.9,28.0,30.13,South,174,0.0,0.0,82,0.00,,,0.00,VWS V13.01,2013-01-06 10:47:00,
2013-01-06 05:52:00,33.1,28.5,30.13,South,174,0.0,0.0,83,0.00,,,0.00,VWS V13.01,2013-01-06 10:52:00,
2013-01-06 05:57:00,33.1,28.5,30.13,South,174,0.0,0.0,83,0.00,,,0.00,VWS V13.01,2013-01-06 10:57:00,
2013-01-06 06:02:00,33.1,28.5,30.13,South,174,0.0,0.0,83,0.00,,,0.00,VWS V13.01,2013-01-06 11:02:00,
2013-01-06 06:07:00,33.1,28.5,30.13,South,174,0.0,0.0,83,0.00,,,0.00,VWS V13.01,2013-01-06 11:07:00,
2013-01-06 06:12:00,33.1,28.8,30.13,South,172,0.0,0.0,84,0.00,,,0.00,VWS V13.01,2013-01-06 11:12:00,
2013-01-06 06:17:00,32.9,28.6,30.13,South,172,0.0,0.0,84,0.00,,,0.00,VWS V13.01,2013-01-06 11:17:00,
2013-01-06 06:22:00,32.9,28.9,30.13,SW,229,0.0,3.6,85,0.00,,,0.00,VWS V13.01,2013-01-06 11:22:00,
2013-01-06 06:27:00,32.9,28.9,30.13,South,169,0.0,2.7,85,0.00,,,0.00,VWS V13.01,2013-01-06 11:27:00,
2013-01-06 06:32:00,32.9,29.5,30.13,SE,146,0.0,0.0,87,0.00,,,0.00,VWS V13.01,2013-01-06 11:32:00,
2013-01-06 06:37:00,32.9,29.5,30.13,SE,141,0.0,0.0,87,0.00,,,0.00,VWS V13.01,2013-01-06 11:37:00,
2013-01-06 06:42:00,33.1,29.6,30.13,SE,141,0.0,0.0,87,0.00,,,0.00,VWS V13.01,2013-01-06 11:42:00,
2013-01-06 06:47:00,33.1,29.6,30.13,SE,143,3.1,3.1,87,0.00,,,0.00,VWS V13.01,2013-01-06 11:47:00,
2013-01-06 06:52:00,33.1,29.9,30.13,SE,143,0.0,0.0,88,0.00,,,0.00,VWS V13.01,2013-01-06 11:52:00,
2013-01-06 06:57:00,33.3,30.4,30.13,SE,143,0.0,0.0,89,0.00,,,0.00,VWS V13.01,2013-01-06 11:57:00,
2013-01-06 07:02:00,33.3,30.4,30.13,SSE,150,2.7,2.7,89,0.00,,,0.00,VWS V13.01,2013-01-06 12:02:00,
2013-01-06 07:07:00,33.3,30.6,30.13,SSE,150,0.0,0.0,90,0.00,,,0.00,VWS V13.01,2013-01-06 12:07:00,
2013-01-06 07:12:00,33.3,30.6,30.13,SW,233,0.0,0.0,90,0.00,,,0.00,VWS V13.01,2013-01-06 12:12:00,
2013-01-06 07:17:00,33.3,30.9,30.13,SSE,152,0.0,0.0,91,0.00,,,0.00,VWS V13.01,2013-01-06 12:17:00,
2013-01-06 07:22:00,33.3,31.2,30.13,SSE,152,0.0,0.0,92,0.00,,,0.00,VWS V13.01,2013-01-06 12:22:00,
2013-01-06 07:27:00,33.3,31.2,30.13,SSE,152,0.0,0.0,92,0.00,,,0.00,VWS V13.01,2013-01-06 12:27:00,
2013-01-06 07:32:00,33.3,31.5,30.13,SSE,152,0.0,0.0,93,0.00,,,0.00,VWS V13.01,2013-01-06 12:32:00,
2013-01-06 07:37:00,33.4,31.9,30.13,SSE,152,0.0,0.0,94,0.00,,,0.00,VWS V13.01,2013-01-06 12:37:00,
2013-01-06 07:42:00,33.4,32.2,30.13,SSE,152,2.2,2.2,95,0.00,,,0.00,VWS V13.01,2013-01-06 12:42:00,
2013-01-06 07:47:00,33.4,32.7,30.13,SSE,149,0.0,0.0,97,0.00,,,0.00,VWS V13.01,2013-01-06 12:47:00,
2013-01-06 07:52:00,33.4,32.7,30.13,SSE,150,0.0,0.0,97,0.00,,,0.00,VWS V13.01,2013-01-06 12:52:00,
2013-01-06 07:57:00,33.4,32.9,30.13,SSE,150,0.0,0.0,98,0.00,,,0.00,VWS V13.01,2013-01-06 12:57:00,
2013-01-06 08:02:00,33.6,33.1,30.13,SSE,150,0.0,0.0,98,0.00,,,0.00,VWS V13.01,2013-01-06 13:02:00,
2013-01-06 08:07:00,33.6,33.1,30.13,SSE,150,0.0,0.0,98,0.00,,,0.00,VWS V13.01,2013-01-06 13:07:00,
2013-01-06 08:12:00,33.6,33.1,30.13,SSE,150,0.0,0.0,98,0.00,,,0.00,VWS V13.01,2013-01-06 13:12:00,
2013-01-06 08:17:00,33.8,32.8,30.13,SSE,151,0.0,3.1,96,0.00,,,0.00,VWS V13.01,2013-01-06 13:17:00,
2013-01-06 08:22:00,33.8,32.8,30.13,SSE,151,0.0,0.0,96,0.00,,,0.00,VWS V13.01,2013-01-06 13:22:00,
2013-01-06 08:27:00,34.2,33.1,30.13,SSE,151,0.0,0.0,96,0.00,,,0.00,VWS V13.01,2013-01-06 13:27:00,
2013-01-06 08:32:00,34.2,33.1,30.13,SSE,151,0.0,0.0,96,0.00,,,0.00,VWS V13.01,2013-01-06 13:32:00,
2013-01-06 08:37:00,34.3,33.1,30.10,SSE,151,2.2,2.2,95,0.00,,,0.00,VWS V13.01,2013-01-06 13:37:00,
2013-01-06 08:42:00,34.7,32.9,30.10,SSE,151,0.0,0.0,93,0.00,,,0.00,VWS V13.01,2013-01-06 13:42:00,
2013-01-06 08:47:00,34.9,32.8,30.10,SSE,151,0.0,0.0,92,0.00,,,0.00,VWS V13.01,2013-01-06 13:47:00,
2013-01-06 08:52:00,34.9,32.5,30.10,SSE,151,0.0,0.0,91,0.00,,,0.00,VWS V13.01,2013-01-06 13:52:00,
2013-01-06 08:57:00,35.1,32.7,30.10,SSE,151,0.0,0.0,91,0.00,,,0.00,VWS V13.01,2013-01-06 13:57:00,
2013-01-06 09:02:00,35.1,32.7,30.10,SSE,151,0.0,0.0,91,0.00,,,0.00,VWS V13.01,2013-01-06 14:02:00,
2013-01-06 09:07:00,35.2,32.6,30.10,SSE,151,0.0,0.0,90,0.00,,,0.00,VWS V13.01,2013-01-06 14:07:00,
2013-01-06 09:12:00,35.2,32.6,30.10,SSE,151,0.0,0.0,90,0.00,,,0.00,VWS V13.01,2013-01-06 14:12:00,
2013-01-06 09:17:00,35.4,32.5,30.10,SSE,151,0.0,0.0,89,0.00,,,0.00,VWS V13.01,2013-01-06 14:17:00,
2013-01-06 09:22:00,35.6,32.4,30.10,SSE,151,0.0,0.0,88,0.00,,,0.00,VWS V13.01,2013-01-06 14:22:00,
2013-01-06 09:27:00,35.6,32.4,30.10,SSE,151,0.0,0.0,88,0.00,,,0.00,VWS V13.01,2013-01-06 14:27:00,
2013-01-06 09:32:00,35.6,32.4,30.10,SSE,151,0.0,0.0,88,0.00,,,0.00,VWS V13.01,2013-01-06 14:32:00,
2013-01-06 09:36:00,36.1,32.1,30.10,SSE,151,0.0,0.0,85,0.00,,,0.00,VWS V13.01,2013-01-06 14:36:00,
2013-01-06 09:41:00,36.3,31.7,30.10,SE,145,0.0,0.0,83,0.00,,,0.00,VWS V13.01,2013-01-06 14:41:00,
2013-01-06 09:46:00,36.3,31.7,30.10,SE,131,2.2,2.7,83,0.00,,,0.00,VWS V13.01,2013-01-06 14:46:00,
2013-01-06 09:51:00,36.3,30.8,30.10,SE,134,3.1,3.1,80,0.00,,,0.00,VWS V13.01,2013-01-06 14:51:00,
2013-01-06 09:56:00,36.3,30.8,30.10,SE,144,3.1,3.1,80,0.00,,,0.00,VWS V13.01,2013-01-06 14:56:00,
2013-01-06 10:01:00,36.3,30.8,30.10,SE,144,0.0,3.1,80,0.00,,,0.00,VWS V13.01,2013-01-06 15:01:00,
2013-01-06 10:06:00,36.7,31.4,30.10,SE,144,0.0,0.0,81,0.00,,,0.00,VWS V13.01,2013-01-06 15:06:00,
2013-01-06 10:11:00,36.9,31.3,30.10,SE,145,0.0,2.7,80,0.00,,,0.00,VWS V13.01,2013-01-06 15:11:00,
2013-01-06 10:16:00,36.9,31.3,30.10,SE,145,0.0,0.0,80,0.00,,,0.00,VWS V13.01,2013-01-06 15:16:00,
2013-01-06 10:21:00,37.4,29.9,30.10,SE,145,3.1,3.1,74,0.00,,,0.00,VWS V13.01,2013-01-06 15:21:00,
2013-01-06 10:26:00,37.6,30.1,30.10,SSE,147,0.0,2.7,74,0.00,,,0.00,VWS V13.01,2013-01-06 15:26:00,
2013-01-06 10:31:00,37.6,30.1,30.10,SSE,158,0.0,3.1,74,0.00,,,0.00,VWS V13.01,2013-01-06 15:31:00,
2013-01-06 10:36:00,38.3,30.1,30.10,SSE,158,2.2,2.2,72,0.00,,,0.00,VWS V13.01,2013-01-06 15:36:00,
2013-01-06 10:41:00,38.7,30.1,30.10,SSE,158,0.0,0.0,71,0.00,,,0.00,VWS V13.01,2013-01-06 15:41:00,
2013-01-06 10:46:00,39.0,29.7,30.07,SW,226,2.7,3.1,69,0.00,,,0.00,VWS V13.01,2013-01-06 15:46:00,
2013-01-06 10:51:00,39.2,29.5,30.07,SW,227,2.7,2.7,68,0.00,,,0.00,VWS V13.01,2013-01-06 15:51:00,
2013-01-06 10:56:00,39.4,29.4,30.07,SW,220,0.0,0.0,67,0.00,,,0.00,VWS V13.01,2013-01-06 15:56:00,
2013-01-06 11:01:00,39.7,29.7,30.07,SW,220,0.0,0.0,67,0.00,,,0.00,VWS V13.01,2013-01-06 16:01:00,
2013-01-06 11:06:00,39.7,29.7,30.07,SE,135,0.0,2.2,67,0.00,,,0.00,VWS V13.01,2013-01-06 16:06:00,
2013-01-06 11:11:00,40.3,29.5,30.07,SW,220,2.2,2.2,65,0.00,,,0.00,VWS V13.01,2013-01-06 16:11:00,
2013-01-06 11:16:00,40.5,29.6,30.07,SW,226,0.0,2.7,65,0.00,,,0.00,VWS V13.01,2013-01-06 16:16:00,
2013-01-06 11:21:00,40.6,29.0,30.07,WNW,283,2.2,3.6,63,0.00,,,0.00,VWS V13.01,2013-01-06 16:21:00,
2013-01-06 11:26:00,40.8,28.8,30.07,SW,220,0.0,2.7,62,0.00,,,0.00,VWS V13.01,2013-01-06 16:26:00,
2013-01-06 11:31:00,40.8,28.8,30.04,SW,215,0.0,3.6,62,0.00,,,0.00,VWS V13.01,2013-01-06 16:31:00,
2013-01-06 11:36:00,40.8,28.8,30.04,SW,221,0.0,0.0,62,0.00,,,0.00,VWS V13.01,2013-01-06 16:36:00,
2013-01-06 11:41:00,41.4,28.5,30.04,SW,223,3.6,3.6,60,0.00,,,0.00,VWS V13.01,2013-01-06 16:41:00,
2013-01-06 11:46:00,41.5,28.7,30.04,SW,231,4.0,4.0,60,0.00,,,0.00,VWS V13.01,2013-01-06 16:46:00,
2013-01-06 11:51:00,41.9,28.6,30.04,SSE,147,2.2,2.2,59,0.00,,,0.00,VWS V13.01,2013-01-06 16:51:00,
2013-01-06 11:56:00,42.1,28.8,30.04,SW,229,0.0,3.6,59,0.00,,,0.00,VWS V13.01,2013-01-06 16:56:00,
2013-01-06 12:01:00,41.9,28.2,30.04,SSE,147,2.2,2.2,58,0.00,,,0.00,VWS V13.01,2013-01-06 17:01:00,
2013-01-06 12:06:00,42.3,29.0,30.04,SSE,155,0.0,2.7,59,0.00,,,0.00,VWS V13.01,2013-01-06 17:06:00,
2013-01-06 12:11:00,42.4,29.1,30.04,SE,139,0.0,0.0,59,0.00,,,0.00,VWS V13.01,2013-01-06 17:11:00,
2013-01-06 12:16:00,42.6,28.9,30.04,West,272,0.0,0.0,58,0.00,,,0.00,VWS V13.01,2013-01-06 17:16:00,
2013-01-06 12:21:00,42.6,28.5,30.01,SSE,152,0.0,2.7,57,0.00,,,0.00,VWS V13.01,2013-01-06 17:21:00,
2013-01-06 12:26:00,42.8,28.6,30.01,SSE,152,3.6,3.6,57,0.00,,,0.00,VWS V13.01,2013-01-06 17:26:00,
2013-01-06 12:31:00,42.8,28.6,30.01,SE,138,6.3,6.3,57,0.00,,,0.00,VWS V13.01,2013-01-06 17:31:00,
2013-01-06 12:36:00,43.0,28.8,30.01,SE,141,0.0,2.7,57,0.00,,,0.00,VWS V13.01,2013-01-06 17:36:00,
2013-01-06 12:41:00,43.2,29.0,30.01,SW,228,2.7,2.7,57,0.00,,,0.00,VWS V13.01,2013-01-06 17:41:00,
2013-01-06 12:46:00,43.3,28.7,30.01,WSW,237,0.0,0.0,56,0.00,,,0.00,VWS V13.01,2013-01-06 17:46:00,
2013-01-06 12:51:00,43.3,28.7,30.01,SE,143,0.0,0.0,56,0.00,,,0.00,VWS V13.01,2013-01-06 17:51:00,
2013-01-06 12:56:00,43.7,29.0,30.01,SE,132,5.4,5.4,56,0.00,,,0.00,VWS V13.01,2013-01-06 17:56:00,
2013-01-06 13:01:00,44.4,29.7,30.01,SW,220,2.7,2.7,56,0.00,,,0.00,VWS V13.01,2013-01-06 18:01:00,
2013-01-06 13:06:00,44.4,29.7,30.01,SW,220,0.0,0.0,56,0.00,,,0.00,VWS V13.01,2013-01-06 18:06:00,
2013-01-06 13:11:00,45.1,29.5,30.01,SW,223,0.0,2.2,54,0.00,,,0.00,VWS V13.01,2013-01-06 18:11:00,
2013-01-06 13:16:00,45.1,29.5,30.01,SW,216,2.7,2.7,54,0.00,,,0.00,VWS V13.01,2013-01-06 18:16:00,
2013-01-06 13:21:00,45.5,29.8,29.98,SE,138,3.1,3.1,54,0.00,,,0.00,VWS V13.01,2013-01-06 18:21:00,
2013-01-06 13:26:00,45.7,30.0,29.98,SW,215,0.0,2.7,54,0.00,,,0.00,VWS V13.01,2013-01-06 18:26:00,
2013-01-06 13:31:00,46.0,30.3,29.98,WSW,240,2.7,2.7,54,0.00,,,0.00,VWS V13.01,2013-01-06 18:31:00,
2013-01-06 13:36:00,46.2,30.5,29.98,SW,232,2.7,2.7,54,0.00,,,0.00,VWS V13.01,2013-01-06 18:36:00,
2013-01-06 13:41:00,46.2,30.0,29.98,SE,132,4.0,4.0,53,0.00,,,0.00,VWS V13.01,2013-01-06 18:41:00,
2013-01-06 13:46:00,46.2,30.0,29.98,SSW,199,0.0,3.6,53,0.00,,,0.00,VWS V13.01,2013-01-06 18:46:00,
2013-01-06 13:51:00,46.2,30.0,29.98,East,100,0.0,3.1,53,0.00,,,0.00,VWS V13.01,2013-01-06 18:51:00,
2013-01-06 13:56:00,46.6,29.4,29.98,WSW,238,0.0,2.2,51,0.00,,,0.00,VWS V13.01,2013-01-06 18:56:00,
2013-01-06 14:01:00,46.4,29.8,29.98,SSE,153,3.1,3.1,52,0.00,,,0.00,VWS V13.01,2013-01-06 19:01:00,
2013-01-06 14:06:00,46.6,29.4,29.98,West,264,0.0,0.0,51,0.00,,,0.00,VWS V13.01,2013-01-06 19:06:00,
2013-01-06 14:11:00,46.8,30.1,29.95,SE,138,3.6,3.6,52,0.00,,,0.00,VWS V13.01,2013-01-06 19:11:00,
2013-01-06 14:16:00,46.9,30.7,29.95,SE,142,3.1,3.1,53,0.00,,,0.00,VWS V13.01,2013-01-06 19:16:00,
2013-01-06 14:21:00,47.1,29.0,29.95,SSE,156,2.7,2.7,49,0.00,,,0.00,VWS V13.01,2013-01-06 19:21:00,
2013-01-06 14:26:00,46.9,29.3,29.95,SE,134,2.7,2.7,50,0.00,,,0.00,VWS V13.01,2013-01-06 19:26:00,
2013-01-06 14:31:00,47.1,29.0,29.95,SE,136,3.6,3.6,49,0.00,,,0.00,VWS V13.01,2013-01-06 19:31:00,
2013-01-06 14:36:00,47.1,29.0,29.95,SSE,152,3.6,3.6,49,0.00,,,0.00,VWS V13.01,2013-01-06 19:36:00,
2013-01-06 14:41:00,47.3,29.1,29.95,SE,144,0.0,0.0,49,0.00,,,0.00,VWS V13.01,2013-01-06 19:41:00,
2013-01-06 14:46:00,47.3,29.1,29.95,SW,219,0.0,2.2,49,0.00,,,0.00,VWS V13.01,2013-01-06 19:46:00,
2013-01-06 14:51:00,47.3,29.1,29.95,SE,137,4.0,4.0,49,0.00,,,0.00,VWS V13.01,2013-01-06 19:51:00,
2013-01-06 14:56:00,47.3,28.6,29.95,SSW,204,2.7,2.7,48,0.00,,,0.00,VWS V13.01,2013-01-06 19:56:00,
2013-01-06 15:01:00,47.1,28.5,29.95,SSW,212,0.0,0.0,48,0.00,,,0.00,VWS V13.01,2013-01-06 20:01:00,
2013-01-06 15:06:00,46.9,28.3,29.95,SE,145,2.7,2.7,48,0.00,,,0.00,VWS V13.01,2013-01-06 20:06:00,
2013-01-06 15:11:00,46.9,28.3,29.95,SSE,163,0.0,2.7,48,0.00,,,0.00,VWS V13.01,2013-01-06 20:11:00,
2013-01-06 15:12:00,46.9,28.3,29.95,SSE,163,0.0,2.7,48,0.00,,,0.00,VWS V13.01,2013-01-06 20:12:00,
2013-01-06 15:13:00,46.9,28.3,29.95,South,187,2.7,3.6,48,0.00,,,0.00,VWS V13.01,2013-01-06 20:13:00,
2013-01-06 15:18:00,46.9,28.3,29.95,SSE,151,2.7,2.7,48,0.00,,,0.00,VWS V13.01,2013-01-06 20:18:00,
2013-01-06 15:23:00,46.9,28.3,29.95,SW,218,2.7,3.1,48,0.00,,,0.00,VWS V13.01,2013-01-06 20:23:00,
2013-01-06 15:28:00,46.8,28.1,29.95,SSW,194,2.2,4.0,48,0.00,,,0.00,VWS V13.01,2013-01-06 20:28:00,
2013-01-06 15:33:00,46.8,28.1,29.95,SSE,154,2.2,2.2,48,0.00,,,0.00,VWS V13.01,2013-01-06 20:33:00,
2013-01-06 15:38:00,46.8,28.1,29.95,SE,146,0.0,0.0,48,0.00,,,0.00,VWS V13.01,2013-01-06 20:38:00,
2013-01-06 15:43:00,46.8,28.1,29.95,SW,224,2.7,2.7,48,0.00,,,0.00,VWS V13.01,2013-01-06 20:43:00,
2013-01-06 15:48:00,46.6,28.0,29.95,SE,139,0.0,3.1,48,0.00,,,0.00,VWS V13.01,2013-01-06 20:48:00,
2013-01-06 15:53:00,46.4,27.8,29.95,SW,224,2.7,2.7,48,0.00,,,0.00,VWS V13.01,2013-01-06 20:53:00,
2013-01-06 15:58:00,46.0,28.0,29.95,SW,224,0.0,2.7,49,0.00,,,0.00,VWS V13.01,2013-01-06 20:58:00,
2013-01-06 16:00:00,45.9,27.8,29.95,SW,224,0.0,0.0,49,0.00,,,0.00,VWS V13.01,2013-01-06 21:00:00,
2013-01-06 16:05:00,45.9,27.3,29.95,SW,224,0.0,0.0,48,0.00,,,0.00,VWS V13.01,2013-01-06 21:05:00,
2013-01-06 16:10:00,45.3,27.3,29.95,SE,146,3.6,3.6,49,0.00,,,0.00,VWS V13.01,2013-01-06 21:10:00,
2013-01-06 16:15:00,45.0,27.0,29.95,SW,230,0.0,0.0,49,0.00,,,0.00,VWS V13.01,2013-01-06 21:15:00,
2013-01-06 16:20:00,45.0,27.0,29.95,SSE,156,2.7,2.7,49,0.00,,,0.00,VWS V13.01,2013-01-06 21:20:00,
2013-01-06 16:25:00,44.6,26.6,29.95,SW,221,3.6,4.0,49,0.00,,,0.00,VWS V13.01,2013-01-06 21:25:00,
2013-01-06 16:30:00,44.2,26.8,29.95,SSE,147,0.0,0.0,50,0.00,,,0.00,VWS V13.01,2013-01-06 21:30:00,
2013-01-06 16:35:00,44.2,26.8,29.98,SW,221,0.0,0.0,50,0.00,,,0.00,VWS V13.01,2013-01-06 21:35:00,
2013-01-06 16:40:00,43.9,26.5,29.98,SE,134,0.0,0.0,50,0.00,,,0.00,VWS V13.01,2013-01-06 21:40:00,
2013-01-06 16:45:00,43.9,26.5,29.98,SE,134,0.0,0.0,50,0.00,,,0.00,VWS V13.01,2013-01-06 21:45:00,
2013-01-06 16:50:00,43.5,26.6,29.98,SE,134,0.0,2.2,51,0.00,,,0.00,VWS V13.01,2013-01-06 21:50:00,
2013-01-06 16:55:00,43.3,26.9,29.98,SE,136,0.0,0.0,52,0.00,,,0.00,VWS V13.01,2013-01-06 21:55:00,
2013-01-06 17:00:00,43.3,26.9,29.98,SE,136,0.0,0.0,52,0.00,,,0.00,VWS V13.01,2013-01-06 22:00:00,
2013-01-06 17:05:00,43.0,27.0,29.98,SE,136,0.0,0.0,53,0.00,,,0.00,VWS V13.01,2013-01-06 22:05:00,
2013-01-06 17:10:00,42.8,26.9,29.98,SE,136,0.0,0.0,53,0.00,,,0.00,VWS V13.01,2013-01-06 22:10:00,
2013-01-06 17:15:00,42.6,27.6,29.98,SSE,154,0.0,0.0,55,0.00,,,0.00,VWS V13.01,2013-01-06 22:15:00,
2013-01-06 17:20:00,42.4,27.0,29.98,SSE,154,0.0,0.0,54,0.00,,,0.00,VWS V13.01,2013-01-06 22:20:00,
2013-01-06 17:25:00,42.4,27.0,29.98,South,174,0.0,0.0,54,0.00,,,0.00,VWS V13.01,2013-01-06 22:25:00,
2013-01-06 17:30:00,42.3,26.8,29.98,SW,217,0.0,2.7,54,0.00,,,0.00,VWS V13.01,2013-01-06 22:30:00,
2013-01-06 17:35:00,42.1,27.1,29.98,SW,217,2.2,2.2,55,0.00,,,0.00,VWS V13.01,2013-01-06 22:35:00,
2013-01-06 17:40:00,41.7,26.8,29.98,SE,146,0.0,2.2,55,0.00,,,0.00,VWS V13.01,2013-01-06 22:40:00,
2013-01-06 17:45:00,41.7,26.8,29.98,SE,144,0.0,0.0,55,0.00,,,0.00,VWS V13.01,2013-01-06 22:45:00,
2013-01-06 17:50:00,41.7,26.8,29.98,SE,144,0.0,0.0,55,0.00,,,0.00,VWS V13.01,2013-01-06 22:50:00,
2013-01-06 17:55:00,41.7,26.8,29.98,SE,144,0.0,0.0,55,0.00,,,0.00,VWS V13.01,2013-01-06 22:55:00,
2013-01-06 18:00:00,41.7,26.8,29.98,SSW,201,0.0,2.2,55,0.00,,,0.00,VWS V13.01,2013-01-06 23:00:00,
2013-01-06 18:05:00,41.7,26.8,29.98,SSW,201,0.0,0.0,55,0.00,,,0.00,VWS V13.01,2013-01-06 23:05:00,
2013-01-06 18:10:00,41.7,26.8,29.98,SSW,200,0.0,0.0,55,0.00,,,0.00,VWS V13.01,2013-01-06 23:10:00,
2013-01-06 18:15:00,41.7,26.8,30.01,SSW,200,0.0,0.0,55,0.00,,,0.00,VWS V13.01,2013-01-06 23:15:00,
2013-01-06 18:20:00,41.7,26.8,30.01,SSW,193,0.0,0.0,55,0.00,,,0.00,VWS V13.01,2013-01-06 23:20:00,
2013-01-06 18:25:00,41.9,26.9,30.01,SE,142,0.0,0.0,55,0.00,,,0.00,VWS V13.01,2013-01-06 23:25:00,
2013-01-06 18:30:00,41.9,26.9,30.01,SE,142,0.0,0.0,55,0.00,,,0.00,VWS V13.01,2013-01-06 23:30:00,
2013-01-06 18:35:00,42.1,27.1,30.01,SSE,167,0.0,3.1,55,0.00,,,0.00,VWS V13.01,2013-01-06 23:35:00,
2013-01-06 18:40:00,42.1,27.1,30.01,SSE,167,0.0,0.0,55,0.00,,,0.00,VWS V13.01,2013-01-06 23:40:00,
2013-01-06 18:45:00,42.1,27.1,30.01,South,191,0.0,0.0,55,0.00,,,0.00,VWS V13.01,2013-01-06 23:45:00,
2013-01-06 18:50:00,42.1,27.1,30.01,South,191,0.0,0.0,55,0.00,,,0.00,VWS V13.01,2013-01-06 23:50:00,
2013-01-06 18:55:00,41.9,26.9,30.01,South,190,2.2,2.2,55,0.00,,,0.00,VWS V13.01,2013-01-06 23:55:00,
2013-01-06 19:00:00,41.7,26.8,30.01,SSW,201,0.0,2.2,55,0.00,,,0.00,VWS V13.01,2013-01-07 00:00:00,
2013-01-06 19:05:00,41.7,27.2,30.01,South,190,0.0,0.0,56,0.00,,,0.00,VWS V13.01,2013-01-07 00:05:00,
2013-01-06 19:10:00,41.7,26.8,30.01,SSE,154,0.0,0.0,55,0.00,,,0.00,VWS V13.01,2013-01-07 00:10:00,
2013-01-06 19:15:00,41.7,26.8,30.01,SSE,154,0.0,0.0,55,0.00,,,0.00,VWS V13.01,2013-01-07 00:15:00,
2013-01-06 19:20:00,41.5,26.6,30.01,SSE,154,0.0,0.0,55,0.00,,,0.00,VWS V13.01,2013-01-07 00:20:00,
2013-01-06 19:25:00,41.7,27.2,30.01,SSE,154,0.0,0.0,56,0.00,,,0.00,VWS V13.01,2013-01-07 00:25:00,
2013-01-06 19:30:00,41.5,27.0,30.01,SSE,154,0.0,0.0,56,0.00,,,0.00,VWS V13.01,2013-01-07 00:30:00,
2013-01-06 19:35:00,41.5,27.0,30.01,SSE,154,0.0,0.0,56,0.00,,,0.00,VWS V13.01,2013-01-07 00:35:00,
2013-01-06 19:40:00,41.4,26.9,30.01,SSE,154,0.0,0.0,56,0.00,,,0.00,VWS V13.01,2013-01-07 00:40:00,
2013-01-06 19:45:00,41.2,26.7,30.01,SSE,154,0.0,0.0,56,0.00,,,0.00,VWS V13.01,2013-01-07 00:45:00,
2013-01-06 19:50:00,41.4,26.9,30.01,SSE,154,0.0,0.0,56,0.00,,,0.00,VWS V13.01,2013-01-07 00:50:00,
2013-01-06 19:55:00,41.4,26.9,30.01,SSE,154,0.0,0.0,56,0.00,,,0.00,VWS V13.01,2013-01-07 00:55:00,
2013-01-06 20:00:00,41.2,26.7,30.01,SSE,154,0.0,0.0,56,0.00,,,0.00,VWS V13.01,2013-01-07 01:00:00,
2013-01-06 20:05:00,41.4,26.9,30.01,SSE,154,0.0,0.0,56,0.00,,,0.00,VWS V13.01,2013-01-07 01:05:00,
2013-01-06 20:10:00,41.2,26.7,30.01,SSE,154,0.0,0.0,56,0.00,,,0.00,VWS V13.01,2013-01-07 01:10:00,
2013-01-06 20:15:00,41.2,26.7,30.01,SSE,154,0.0,0.0,56,0.00,,,0.00,VWS V13.01,2013-01-07 01:15:00,
2013-01-06 20:20:00,41.2,26.7,30.01,SW,215,0.0,2.2,56,0.00,,,0.00,VWS V13.01,2013-01-07 01:20:00,
2013-01-06 20:25:00,41.2,26.7,30.01,SW,215,0.0,0.0,56,0.00,,,0.00,VWS V13.01,2013-01-07 01:25:00,
2013-01-06 20:30:00,41.2,26.7,30.01,SE,137,0.0,0.0,56,0.00,,,0.00,VWS V13.01,2013-01-07 01:30:00,
2013-01-06 20:35:00,41.2,26.7,30.01,SE,137,0.0,0.0,56,0.00,,,0.00,VWS V13.01,2013-01-07 01:35:00,
2013-01-06 20:40:00,41.2,26.7,30.01,SE,137,0.0,0.0,56,0.00,,,0.00,VWS V13.01,2013-01-07 01:40:00,
2013-01-06 20:45:00,41.0,26.5,30.01,SE,137,0.0,0.0,56,0.00,,,0.00,VWS V13.01,2013-01-07 01:45:00,
2013-01-06 20:50:00,41.0,27.0,30.01,SE,137,0.0,0.0,57,0.00,,,0.00,VWS V13.01,2013-01-07 01:50:00,
2013-01-06 20:55:00,41.0,26.5,30.01,SE,137,0.0,0.0,56,0.00,,,0.00,VWS V13.01,2013-01-07 01:55:00,
2013-01-06 21:00:00,41.0,26.5,30.01,SE,138,0.0,0.0,56,0.00,,,0.00,VWS V13.01,2013-01-07 02:00:00,
2013-01-06 21:05:00,40.8,26.8,30.01,SE,138,0.0,0.0,57,0.00,,,0.00,VWS V13.01,2013-01-07 02:05:00,
2013-01-06 21:10:00,40.6,27.0,30.01,SE,138,0.0,0.0,58,0.00,,,0.00,VWS V13.01,2013-01-07 02:10:00,
2013-01-06 21:15:00,40.6,26.6,30.01,SW,216,2.2,2.2,57,0.00,,,0.00,VWS V13.01,2013-01-07 02:15:00,
2013-01-06 21:20:00,40.8,26.8,30.01,SW,216,0.0,2.2,57,0.00,,,0.00,VWS V13.01,2013-01-07 02:20:00,
2013-01-06 21:25:00,40.8,26.8,30.01,SSE,154,0.0,0.0,57,0.00,,,0.00,VWS V13.01,2013-01-07 02:25:00,
2013-01-06 21:30:00,40.6,26.6,30.01,SSE,154,0.0,0.0,57,0.00,,,0.00,VWS V13.01,2013-01-07 02:30:00,
2013-01-06 21:35:00,40.6,26.6,30.01,SSE,154,0.0,0.0,57,0.00,,,0.00,VWS V13.01,2013-01-07 02:35:00,
2013-01-06 21:40:00,40.5,26.9,30.01,SSE,154,0.0,0.0,58,0.00,,,0.00,VWS V13.01,2013-01-07 02:40:00,
2013-01-06 21:45:00,40.3,26.7,30.01,SSE,154,0.0,2.7,58,0.00,,,0.00,VWS V13.01,2013-01-07 02:45:00,
2013-01-06 21:50:00,40.3,26.7,30.01,SSE,154,0.0,0.0,58,0.00,,,0.00,VWS V13.01,2013-01-07 02:50:00,
2013-01-06 21:55:00,40.1,26.5,30.01,SSE,154,0.0,0.0,58,0.00,,,0.00,VWS V13.01,2013-01-07 02:55:00,
2013-01-06 22:00:00,39.7,26.2,30.01,SSE,154,0.0,0.0,58,0.00,,,0.00,VWS V13.01,2013-01-07 03:00:00,
2013-01-06 22:05:00,39.6,26.0,30.04,SSE,154,0.0,0.0,58,0.00,,,0.00,VWS V13.01,2013-01-07 03:05:00,
2013-01-06 22:09:00,39.4,26.3,30.04,SSE,154,0.0,0.0,59,0.00,,,0.00,VWS V13.01,2013-01-07 03:09:00,
2013-01-06 22:14:00,39.2,26.5,30.04,SSE,154,0.0,0.0,60,0.00,,,0.00,VWS V13.01,2013-01-07 03:14:00,
2013-01-06 22:19:00,39.2,26.5,30.04,SSE,154,0.0,0.0,60,0.00,,,0.00,VWS V13.01,2013-01-07 03:19:00,
2013-01-06 22:24:00,38.8,26.2,30.04,SSE,154,0.0,0.0,60,0.00,,,0.00,VWS V13.01,2013-01-07 03:24:00,
2013-01-06 22:29:00,38.7,26.4,30.04,SSE,154,0.0,0.0,61,0.00,,,0.00,VWS V13.01,2013-01-07 03:29:00,
2013-01-06 22:34:00,38.3,26.0,30.04,SSE,154,0.0,0.0,61,0.00,,,0.00,VWS V13.01,2013-01-07 03:34:00,
2013-01-06 22:39:00,37.9,26.5,30.04,SSE,154,0.0,0.0,63,0.00,,,0.00,VWS V13.01,2013-01-07 03:39:00,
2013-01-06 22:44:00,37.6,26.5,30.04,SSE,154,0.0,0.0,64,0.00,,,0.00,VWS V13.01,2013-01-07 03:44:00,
2013-01-06 22:49:00,37.4,27.1,30.04,SSE,154,0.0,0.0,66,0.00,,,0.00,VWS V13.01,2013-01-07 03:49:00,
2013-01-06 22:54:00,37.0,27.1,30.04,SSE,154,0.0,0.0,67,0.00,,,0.00,VWS V13.01,2013-01-07 03:54:00,
2013-01-06 22:59:00,37.0,27.1,30.04,SSE,154,0.0,0.0,67,0.00,,,0.00,VWS V13.01,2013-01-07 03:59:00,
2013-01-06 23:04:00,37.0,27.1,30.04,SSE,154,0.0,0.0,67,0.00,,,0.00,VWS V13.01,2013-01-07 04:04:00,
2013-01-06 23:09:00,37.0,27.1,30.04,SSE,154,0.0,0.0,67,0.00,,,0.00,VWS V13.01,2013-01-07 04:09:00,
2013-01-06 23:14:00,36.9,27.3,30.04,SSE,154,0.0,0.0,68,0.00,,,0.00,VWS V13.01,2013-01-07 04:14:00,
2013-01-06 23:19:00,36.5,27.0,30.04,SSE,154,0.0,0.0,68,0.00,,,0.00,VWS V13.01,2013-01-07 04:19:00,
2013-01-06 23:24:00,36.5,27.0,30.04,SSE,154,0.0,0.0,68,0.00,,,0.00,VWS V13.01,2013-01-07 04:24:00,
2013-01-06 23:29:00,36.3,26.8,30.04,SSE,154,0.0,0.0,68,0.00,,,0.00,VWS V13.01,2013-01-07 04:29:00,
2013-01-06 23:34:00,36.1,27.0,30.04,SSE,154,0.0,0.0,69,0.00,,,0.00,VWS V13.01,2013-01-07 04:34:00,
2013-01-06 23:39:00,36.0,26.8,30.04,SSE,154,0.0,0.0,69,0.00,,,0.00,VWS V13.01,2013-01-07 04:39:00,
2013-01-06 23:44:00,35.8,27.0,30.04,SSE,154,0.0,0.0,70,0.00,,,0.00,VWS V13.01,2013-01-07 04:44:00,
2013-01-06 23:49:00,35.6,26.8,30.04,SSE,154,0.0,0.0,70,0.00,,,0.00,VWS V13.01,2013-01-07 04:49:00,
2013-01-06 23:54:00,35.4,26.6,30.04,SSE,154,0.0,0.0,70,0.00,,,0.00,VWS V13.01,2013-01-07 04:54:00,
2013-01-06 23:59:00,35.4,27.0,30.04,SSE,154,0.0,0.0,71,0.00,,,0.00,VWS V13.01,2013-01-07 04:59:00,